Las Rusias, Texas
Current Conditions -  °F | °C
As of 10:52 AM on Thursday 23 Oct 2014 (Local Time) from KHRL Reporting Station
Few Clouds Few Clouds  
Wind Chill: 78°   Ceiling: Unl
Heat Index: 80°   Visibility: 10mi
Dew Point: 69°   Wind: 7mph
Humidity: 74%   Direction: 10°N
Pressure: 30.09"   Gusts: NA
Location:  26.1784°N, 97.6678°W
Report Text: KHRL 231552Z 01006KT 10SM FEW039 26/21 A3009 RMK AO2 SLP188 T02560206
Loading
Personal Weather Stations






























Interactive Weather Map
Tropical Storm Tracking
New forecast layout! Learn more

10-Day Weather Forecast

Advertisements
Track Severe Weather on mobile